createdAt,value
2023-02-01T00:02:11.222Z,11.90
2023-02-01T00:04:58.000Z,12.60
2023-02-01T00:08:03.582Z,12.50
2023-02-01T00:10:49.913Z,11.70
2023-02-01T00:13:39.073Z,12.30
2023-02-01T00:16:29.126Z,12.40
2023-02-01T00:19:16.341Z,12.90
2023-02-01T00:22:02.759Z,11.80
2023-02-01T00:24:49.194Z,11.00
2023-02-01T00:27:35.761Z,10.80
2023-02-01T00:30:22.832Z,10.40
2023-02-01T00:33:37.825Z,9.50
2023-02-01T00:36:24.207Z,8.70
2023-02-01T00:39:11.464Z,7.70
2023-02-01T00:41:57.951Z,7.90
2023-02-01T00:44:44.308Z,7.40
2023-02-01T00:47:31.516Z,6.40
2023-02-01T00:50:18.100Z,6.10
2023-02-01T00:53:04.575Z,5.50
2023-02-01T00:55:51.189Z,4.90
2023-02-01T00:58:38.273Z,5.70
2023-02-01T01:02:38.822Z,8.30
2023-02-01T01:06:34.931Z,4.40
2023-02-01T01:10:32.677Z,4.20
2023-02-01T01:13:18.999Z,4.90
2023-02-01T01:16:14.896Z,5.90
2023-02-01T01:19:02.128Z,4.50
2023-02-01T01:21:48.643Z,4.70
2023-02-01T01:25:47.355Z,5.00
2023-02-01T01:29:56.016Z,4.60
2023-02-01T01:33:22.748Z,5.10
2023-02-01T01:37:21.848Z,2.40
2023-02-01T01:41:35.842Z,6.10
2023-02-01T01:44:58.542Z,4.00
2023-02-01T01:47:54.923Z,4.10
2023-02-01T01:51:11.328Z,5.10
2023-02-01T01:54:02.283Z,5.70
2023-02-01T01:57:19.829Z,3.10
2023-02-01T02:00:12.390Z,5.20
2023-02-01T02:03:03.790Z,5.70
2023-02-01T02:05:50.399Z,9.00
2023-02-01T02:08:36.438Z,5.70
2023-02-01T02:11:21.660Z,6.70
2023-02-01T02:14:10.142Z,7.90
2023-02-01T02:17:11.327Z,7.40
2023-02-01T02:20:27.107Z,10.00
2023-02-01T02:23:42.244Z,7.00
2023-02-01T02:26:36.367Z,8.30
2023-02-01T02:30:20.021Z,7.40
2023-02-01T02:33:32.971Z,7.10
2023-02-01T02:36:20.679Z,8.90
2023-02-01T02:39:24.011Z,8.70
2023-02-01T02:42:33.226Z,9.90
2023-02-01T02:45:43.551Z,8.70
2023-02-01T02:48:42.676Z,8.20
2023-02-01T02:52:22.950Z,8.90
2023-02-01T02:55:09.161Z,12.10
2023-02-01T02:58:15.202Z,11.00
2023-02-01T03:01:20.959Z,8.50
2023-02-01T03:04:09.633Z,11.70
2023-02-01T03:06:55.155Z,9.70
2023-02-01T03:09:48.059Z,10.40
2023-02-01T03:12:56.004Z,14.70
2023-02-01T03:16:07.413Z,9.40
2023-02-01T03:19:04.064Z,10.40
2023-02-01T03:21:56.265Z,9.40
2023-02-01T03:24:48.472Z,11.50
2023-02-01T03:27:38.711Z,9.80
2023-02-01T03:30:32.132Z,11.00
2023-02-01T03:33:21.840Z,13.90
2023-02-01T03:36:23.048Z,10.80
2023-02-01T03:39:25.188Z,10.60
2023-02-01T03:42:20.829Z,10.80
2023-02-01T03:45:10.546Z,12.70
2023-02-01T03:48:00.506Z,10.60
2023-02-01T03:50:50.541Z,12.30
2023-02-01T03:53:37.793Z,12.20
2023-02-01T03:56:25.803Z,11.80
2023-02-01T03:59:12.649Z,13.20
2023-02-01T04:01:57.543Z,11.90
2023-02-01T04:04:42.796Z,11.70
2023-02-01T04:07:27.815Z,10.70
2023-02-01T04:10:13.606Z,11.70
2023-02-01T04:13:28.321Z,11.60
2023-02-01T04:16:13.526Z,13.40
2023-02-01T04:18:59.097Z,13.40
2023-02-01T04:21:47.442Z,15.30
2023-02-01T04:24:32.592Z,14.00
2023-02-01T04:27:19.383Z,13.60
2023-02-01T04:30:09.919Z,12.60
2023-02-01T04:32:55.122Z,10.80
2023-02-01T04:35:40.701Z,11.90
2023-02-01T04:38:27.231Z,10.60
2023-02-01T04:41:12.137Z,14.90
2023-02-01T04:43:57.314Z,11.00
2023-02-01T04:46:43.297Z,12.50
2023-02-01T04:49:28.311Z,12.80
2023-02-01T04:52:13.603Z,13.00
2023-02-01T04:55:00.470Z,11.40
2023-02-01T04:57:45.661Z,14.40
2023-02-01T05:00:33.374Z,9.10
2023-02-01T05:03:18.800Z,13.00
2023-02-01T05:06:05.277Z,11.30
2023-02-01T05:08:50.363Z,9.70
2023-02-01T05:11:54.109Z,14.50
2023-02-01T05:14:39.057Z,12.40
2023-02-01T05:17:24.291Z,14.30
2023-02-01T05:20:09.909Z,13.90
2023-02-01T05:22:55.260Z,11.90
2023-02-01T05:25:40.352Z,13.60
2023-02-01T05:28:25.558Z,12.80
2023-02-01T05:31:11.871Z,12.20
2023-02-01T05:33:56.912Z,10.80
2023-02-01T05:36:42.367Z,11.40
2023-02-01T05:39:30.262Z,14.70
2023-02-01T05:42:16.511Z,12.70
2023-02-01T05:45:03.011Z,12.20
2023-02-01T05:47:48.406Z,17.40
2023-02-01T05:51:53.321Z,13.10
2023-02-01T05:55:10.537Z,11.60
2023-02-01T05:59:10.453Z,10.80
2023-02-01T06:01:57.200Z,15.20
2023-02-01T06:04:44.397Z,13.30
2023-02-01T06:07:31.131Z,11.20
2023-02-01T06:10:19.028Z,12.30
2023-02-01T06:13:06.644Z,13.80
2023-02-01T06:15:53.441Z,14.60
2023-02-01T06:18:40.362Z,14.40
2023-02-01T06:21:26.917Z,11.80
2023-02-01T06:24:13.944Z,13.80
2023-02-01T06:27:00.655Z,13.60
2023-02-01T06:29:47.264Z,13.70
2023-02-01T06:32:34.299Z,12.20
2023-02-01T06:35:21.087Z,12.00
2023-02-01T06:38:07.513Z,14.50
2023-02-01T06:40:55.609Z,14.50
2023-02-01T06:43:41.909Z,14.00
2023-02-01T06:46:28.257Z,13.90
2023-02-01T06:49:14.677Z,13.00
2023-02-01T06:52:01.299Z,15.10
2023-02-01T06:55:05.011Z,10.90
2023-02-01T06:59:18.788Z,11.00
2023-02-01T07:02:39.169Z,8.70
2023-02-01T07:06:38.909Z,12.00
2023-02-01T07:10:35.636Z,12.50
2023-02-01T07:13:23.180Z,10.70
2023-02-01T07:16:12.894Z,14.20
2023-02-01T07:19:00.676Z,14.00
2023-02-01T07:21:47.169Z,12.20
2023-02-01T07:24:34.955Z,14.80
2023-02-01T07:27:52.013Z,15.30
2023-02-01T07:31:16.701Z,12.50
2023-02-01T07:35:15.161Z,11.00
2023-02-01T07:38:01.422Z,12.50
2023-02-01T07:40:47.751Z,13.20
2023-02-01T07:43:37.034Z,13.00
2023-02-01T07:46:23.727Z,14.90
2023-02-01T07:49:11.314Z,15.40
2023-02-01T07:51:57.658Z,11.60
2023-02-01T07:54:44.549Z,14.10
2023-02-01T07:57:31.012Z,14.80
2023-02-01T08:00:36.703Z,16.70
2023-02-01T08:03:35.720Z,12.20
2023-02-01T08:07:50.523Z,14.80
2023-02-01T08:11:03.966Z,12.20
2023-02-01T08:13:49.525Z,13.30
2023-02-01T08:16:36.785Z,17.30
2023-02-01T08:21:37.495Z,15.10
2023-02-01T08:25:36.167Z,15.80
2023-02-01T08:29:36.613Z,13.20
2023-02-01T08:32:23.147Z,14.20
2023-02-01T08:35:10.130Z,14.60
2023-02-01T08:37:56.911Z,15.50
2023-02-01T08:40:48.854Z,15.10
2023-02-01T08:43:35.256Z,14.40
2023-02-01T08:46:33.132Z,13.40
2023-02-01T08:50:28.477Z,8.30
2023-02-01T08:54:23.339Z,13.80
2023-02-01T08:58:18.969Z,15.30
2023-02-01T09:02:18.247Z,14.80
2023-02-01T09:06:17.545Z,12.00
2023-02-01T09:10:35.691Z,12.50
2023-02-01T09:13:50.520Z,17.20
2023-02-01T09:17:50.024Z,12.20
2023-02-01T09:21:45.052Z,17.40
2023-02-01T09:25:42.195Z,11.20
2023-02-01T09:28:28.834Z,12.70
2023-02-01T09:31:15.852Z,11.70
2023-02-01T09:34:04.065Z,14.00
2023-02-01T09:36:50.545Z,15.40
2023-02-01T09:39:37.065Z,13.80
2023-02-01T09:43:17.787Z,12.50
2023-02-01T09:46:27.146Z,13.20
2023-02-01T09:50:38.404Z,12.00
2023-02-01T09:54:13.130Z,14.70
2023-02-01T09:57:08.205Z,13.50
2023-02-01T10:00:07.369Z,12.10
2023-02-01T10:02:56.198Z,13.40
2023-02-01T10:06:07.519Z,12.20
2023-02-01T10:09:21.945Z,13.60
2023-02-01T10:12:17.195Z,12.90
2023-02-01T10:15:18.606Z,11.80
2023-02-01T10:18:18.391Z,12.30
2023-02-01T10:21:43.163Z,12.30
2023-02-01T10:24:41.076Z,14.20
2023-02-01T10:27:44.775Z,14.40
2023-02-01T10:30:43.105Z,14.00
2023-02-01T10:33:43.435Z,15.20
2023-02-01T10:36:39.348Z,14.00
2023-02-01T10:39:25.951Z,13.50
2023-02-01T10:42:13.437Z,11.20
2023-02-01T10:45:02.979Z,16.10
2023-02-01T10:47:51.966Z,12.30
2023-02-01T10:50:41.515Z,15.90
2023-02-01T10:53:32.857Z,12.90
2023-02-01T10:56:25.578Z,13.50
2023-02-01T10:59:21.590Z,13.20
2023-02-01T11:02:21.787Z,12.70
2023-02-01T11:05:17.224Z,11.20
2023-02-01T11:08:03.869Z,13.40
2023-02-01T11:11:02.402Z,12.30
2023-02-01T11:14:11.968Z,14.60
2023-02-01T11:17:01.331Z,14.30
2023-02-01T11:19:57.137Z,13.30
2023-02-01T11:22:49.433Z,12.70
2023-02-01T11:25:37.411Z,16.20
2023-02-01T11:28:32.230Z,12.90
2023-02-01T11:31:19.924Z,13.30
2023-02-01T11:34:31.599Z,15.20
2023-02-01T11:37:22.182Z,12.70
2023-02-01T11:40:30.061Z,11.90
2023-02-01T11:43:29.377Z,13.80
2023-02-01T11:46:25.875Z,10.50
2023-02-01T11:49:28.449Z,13.00
2023-02-01T11:52:39.580Z,12.40
2023-02-01T11:55:58.509Z,12.80
2023-02-01T11:59:11.062Z,12.40
2023-02-01T12:02:16.844Z,13.10
2023-02-01T12:05:17.660Z,13.60
2023-02-01T12:08:21.474Z,11.30
2023-02-01T12:11:58.945Z,10.10
2023-02-01T12:14:48.183Z,13.60
2023-02-01T12:17:49.434Z,10.80
2023-02-01T12:20:58.237Z,16.00
2023-02-01T12:24:09.736Z,15.60
2023-02-01T12:27:14.886Z,14.40
2023-02-01T12:30:12.723Z,13.10
2023-02-01T12:33:26.131Z,13.70
2023-02-01T12:37:14.568Z,15.10
2023-02-01T12:40:36.318Z,14.30
2023-02-01T12:43:40.718Z,13.30
2023-02-01T12:46:34.192Z,15.00
2023-02-01T12:49:28.533Z,13.30
2023-02-01T12:52:21.250Z,14.70
2023-02-01T12:55:29.508Z,16.80
2023-02-01T12:58:55.780Z,18.40
2023-02-01T13:01:51.978Z,13.30
2023-02-01T13:04:52.255Z,15.40
2023-02-01T13:08:01.283Z,16.10
2023-02-01T13:10:56.671Z,15.30
2023-02-01T13:14:14.069Z,17.80
2023-02-01T13:17:05.130Z,16.40
2023-02-01T13:20:06.618Z,15.30
2023-02-01T13:23:04.985Z,15.70
2023-02-01T13:25:53.381Z,13.00
2023-02-01T13:29:07.010Z,14.40
2023-02-01T13:32:57.071Z,14.90
2023-02-01T13:36:16.761Z,14.10
2023-02-01T13:39:31.528Z,16.80
2023-02-01T13:42:29.941Z,15.50
2023-02-01T13:45:23.586Z,18.90
2023-02-01T13:48:21.973Z,16.10
2023-02-01T13:51:08.967Z,12.10
2023-02-01T13:53:55.603Z,13.40
2023-02-01T13:56:44.789Z,13.20
2023-02-01T13:59:49.136Z,10.90
2023-02-01T14:02:41.870Z,9.90
2023-02-01T14:05:28.512Z,10.80
2023-02-01T14:08:24.232Z,11.10
2023-02-01T14:11:36.582Z,9.90
2023-02-01T14:14:24.702Z,10.10
2023-02-01T14:17:11.382Z,11.80
2023-02-01T14:20:36.222Z,9.50
2023-02-01T14:23:25.417Z,12.80
2023-02-01T14:26:16.198Z,10.60
2023-02-01T14:29:21.362Z,10.20
2023-02-01T14:32:17.734Z,12.50
2023-02-01T14:35:25.763Z,10.10
2023-02-01T14:38:13.359Z,8.60
2023-02-01T14:41:33.789Z,12.60
2023-02-01T14:44:27.744Z,10.00
2023-02-01T14:47:23.975Z,9.50
2023-02-01T14:50:11.225Z,9.60
2023-02-01T14:53:13.705Z,9.20
2023-02-01T14:56:12.847Z,10.10
2023-02-01T14:59:07.552Z,11.40
2023-02-01T15:01:58.532Z,11.90
2023-02-01T15:04:45.977Z,8.80
2023-02-01T15:07:34.175Z,8.30
2023-02-01T15:10:24.598Z,8.00
2023-02-01T15:13:24.724Z,6.50
2023-02-01T15:16:17.094Z,7.60
2023-02-01T15:19:12.674Z,7.20
2023-02-01T15:22:00.020Z,6.40
2023-02-01T15:24:57.380Z,7.30
2023-02-01T15:27:44.106Z,7.10
2023-02-01T15:30:35.728Z,6.70
2023-02-01T15:33:23.052Z,7.00
2023-02-01T15:36:18.768Z,6.60
2023-02-01T15:39:48.927Z,6.40
2023-02-01T15:42:50.759Z,7.80
2023-02-01T15:45:38.158Z,7.60
2023-02-01T15:48:27.116Z,7.30
2023-02-01T15:51:18.625Z,7.90
2023-02-01T15:54:09.704Z,9.80
2023-02-01T15:57:00.038Z,7.50
2023-02-01T15:59:46.832Z,6.80
2023-02-01T16:02:34.034Z,7.70
2023-02-01T16:05:35.002Z,8.60
2023-02-01T16:08:25.153Z,8.50
2023-02-01T16:11:28.729Z,6.60
2023-02-01T16:14:16.612Z,7.40
2023-02-01T16:17:03.561Z,8.10
2023-02-01T16:19:50.984Z,7.20
2023-02-01T16:22:38.941Z,6.80
2023-02-01T16:25:26.313Z,7.50
2023-02-01T16:28:13.743Z,7.00
2023-02-01T16:31:54.296Z,8.80
2023-02-01T16:35:37.964Z,7.90
2023-02-01T16:39:35.486Z,7.40
2023-02-01T16:42:52.109Z,9.20
2023-02-01T16:45:41.801Z,9.20
2023-02-01T16:48:38.180Z,9.80
2023-02-01T16:51:28.202Z,7.80
2023-02-01T16:54:15.884Z,9.00
2023-02-01T16:57:02.955Z,8.60
2023-02-01T16:59:52.099Z,8.00
2023-02-01T17:02:41.203Z,8.60
2023-02-01T17:05:30.169Z,8.50
2023-02-01T17:08:33.793Z,10.30
2023-02-01T17:11:23.039Z,10.50
2023-02-01T17:14:20.271Z,9.20
2023-02-01T17:17:12.047Z,9.20
2023-02-01T17:20:33.276Z,10.40
2023-02-01T17:23:21.350Z,8.90
2023-02-01T17:26:11.775Z,9.00
2023-02-01T17:28:58.922Z,8.70
2023-02-01T17:31:51.713Z,9.60
2023-02-01T17:34:39.501Z,12.50
2023-02-01T17:37:33.416Z,11.70
2023-02-01T17:40:20.566Z,10.10
2023-02-01T17:43:14.717Z,10.20
2023-02-01T17:46:14.895Z,10.20
2023-02-01T17:50:31.356Z,9.60
2023-02-01T17:54:26.925Z,11.80
2023-02-01T17:57:14.955Z,10.70
2023-02-01T18:00:04.377Z,10.60
2023-02-01T18:02:52.222Z,10.60
2023-02-01T18:05:45.372Z,12.20
2023-02-01T18:08:44.730Z,10.40
2023-02-01T18:11:34.147Z,10.10
2023-02-01T18:14:21.979Z,10.30
2023-02-01T18:17:11.238Z,13.20
2023-02-01T18:19:59.486Z,11.10
2023-02-01T18:22:51.552Z,11.90
2023-02-01T18:26:18.607Z,11.10
2023-02-01T18:29:06.992Z,12.40
2023-02-01T18:31:55.707Z,10.70
2023-02-01T18:34:44.496Z,9.00
2023-02-01T18:37:32.195Z,11.10
2023-02-01T18:40:22.897Z,12.30
2023-02-01T18:43:12.539Z,10.90
2023-02-01T18:46:00.003Z,13.10
2023-02-01T18:48:48.334Z,11.80
2023-02-01T18:51:36.474Z,12.00
2023-02-01T18:54:25.456Z,11.00
2023-02-01T18:57:16.498Z,10.40
2023-02-01T19:00:08.692Z,11.70
2023-02-01T19:02:57.115Z,10.80
2023-02-01T19:05:48.593Z,11.10
2023-02-01T19:08:37.429Z,9.90
2023-02-01T19:11:26.328Z,9.80
2023-02-01T19:14:54.878Z,9.30
2023-02-01T19:19:10.506Z,9.00
2023-02-01T19:21:57.377Z,13.20
2023-02-01T19:24:43.982Z,14.30
2023-02-01T19:27:29.992Z,10.00
2023-02-01T19:30:25.512Z,12.60
2023-02-01T19:33:22.832Z,12.80
2023-02-01T19:37:46.784Z,10.20
2023-02-01T19:41:44.990Z,14.10
2023-02-01T19:56:36.053Z,11.60
2023-02-01T19:59:32.665Z,10.30
2023-02-01T20:04:03.862Z,10.80
2023-02-01T20:08:02.829Z,8.70
2023-02-01T20:11:59.531Z,11.90
2023-02-01T20:15:59.738Z,11.50
2023-02-01T20:20:05.679Z,10.70
2023-02-01T20:25:20.423Z,10.40
2023-02-01T20:39:27.502Z,13.30
2023-02-01T20:53:42.180Z,12.70
2023-02-01T21:07:05.498Z,9.40
2023-02-01T21:10:28.389Z,19.00
2023-02-01T21:14:26.395Z,16.20
2023-02-01T21:18:21.583Z,13.80
2023-02-01T21:22:49.878Z,13.20
2023-02-01T21:37:13.457Z,13.10
2023-02-01T21:40:13.461Z,13.40
2023-02-01T21:44:14.536Z,10.50
2023-02-01T21:48:11.465Z,10.40
2023-02-01T21:52:07.135Z,10.90
2023-02-01T22:01:36.095Z,10.20
2023-02-01T22:05:34.534Z,9.70
2023-02-01T22:10:22.664Z,10.40
2023-02-01T22:14:38.134Z,12.30
2023-02-01T22:18:31.135Z,12.90
2023-02-01T22:22:25.545Z,12.10
2023-02-01T22:25:11.893Z,10.50
2023-02-01T22:28:31.815Z,12.10
2023-02-01T22:31:07.667Z,11.40
2023-02-01T22:33:54.145Z,13.80
2023-02-01T22:36:40.850Z,12.90
2023-02-01T22:50:05.831Z,8.90
2023-02-01T22:53:10.637Z,12.20
2023-02-01T23:34:40.852Z,5.30
2023-02-01T23:37:42.202Z,5.00
2023-02-01T23:41:37.424Z,7.10
2023-02-01T23:45:36.938Z,8.10
2023-02-01T23:49:15.643Z,7.10
2023-02-01T23:53:13.386Z,8.70
2023-02-01T23:57:08.394Z,9.20
